sensor_id;sensor_type;location;lat;lon;timestamp;P1;durP1;ratioP1;P2;durP2;ratioP2
77544;SDS011;66672;50.328;7.610;2023-08-21T00:01:56;18.45;;;11.40;;
77544;SDS011;66672;50.328;7.610;2023-08-21T00:04:21;13.55;;;11.60;;
77544;SDS011;66672;50.328;7.610;2023-08-21T00:06:46;13.50;;;11.02;;
77544;SDS011;66672;50.328;7.610;2023-08-21T00:09:11;14.63;;;11.55;;
77544;SDS011;66672;50.328;7.610;2023-08-21T00:11:36;12.77;;;10.57;;
77544;SDS011;66672;50.328;7.610;2023-08-21T00:14:02;13.77;;;11.10;;
77544;SDS011;66672;50.328;7.610;2023-08-21T00:16:27;17.50;;;10.90;;
77544;SDS011;66672;50.328;7.610;2023-08-21T00:18:53;17.02;;;11.70;;
77544;SDS011;66672;50.328;7.610;2023-08-21T00:21:19;14.23;;;11.35;;
77544;SDS011;66672;50.328;7.610;2023-08-21T00:23:44;15.90;;;11.98;;
77544;SDS011;66672;50.328;7.610;2023-08-21T00:26:09;16.53;;;12.23;;
77544;SDS011;66672;50.328;7.610;2023-08-21T00:28:34;13.03;;;11.63;;
77544;SDS011;66672;50.328;7.610;2023-08-21T00:31:00;12.80;;;11.00;;
77544;SDS011;66672;50.328;7.610;2023-08-21T00:33:25;14.45;;;11.15;;
77544;SDS011;66672;50.328;7.610;2023-08-21T00:35:51;12.27;;;10.97;;
77544;SDS011;66672;50.328;7.610;2023-08-21T00:38:16;12.85;;;11.23;;
77544;SDS011;66672;50.328;7.610;2023-08-21T00:40:42;16.77;;;11.57;;
77544;SDS011;66672;50.328;7.610;2023-08-21T00:43:07;15.33;;;12.00;;
77544;SDS011;66672;50.328;7.610;2023-08-21T00:45:32;16.40;;;12.10;;
77544;SDS011;66672;50.328;7.610;2023-08-21T00:47:58;15.48;;;11.98;;
77544;SDS011;66672;50.328;7.610;2023-08-21T00:50:23;16.67;;;11.07;;
77544;SDS011;66672;50.328;7.610;2023-08-21T00:52:48;12.70;;;11.40;;
77544;SDS011;66672;50.328;7.610;2023-08-21T00:55:14;16.00;;;10.75;;
77544;SDS011;66672;50.328;7.610;2023-08-21T00:57:39;15.55;;;12.07;;
77544;SDS011;66672;50.328;7.610;2023-08-21T01:00:05;14.98;;;11.77;;
77544;SDS011;66672;50.328;7.610;2023-08-21T01:02:30;13.13;;;11.73;;
77544;SDS011;66672;50.328;7.610;2023-08-21T01:04:56;13.52;;;11.25;;
77544;SDS011;66672;50.328;7.610;2023-08-21T01:07:21;14.05;;;10.70;;
77544;SDS011;66672;50.328;7.610;2023-08-21T01:09:50;12.82;;;10.43;;
77544;SDS011;66672;50.328;7.610;2023-08-21T01:17:19;13.50;;;11.00;;
77544;SDS011;66672;50.328;7.610;2023-08-21T01:19:46;10.93;;;9.68;;
77544;SDS011;66672;50.328;7.610;2023-08-21T01:22:12;12.93;;;11.10;;
77544;SDS011;66672;50.328;7.610;2023-08-21T01:24:38;14.70;;;11.13;;
77544;SDS011;66672;50.328;7.610;2023-08-21T01:27:03;13.48;;;10.45;;
77544;SDS011;66672;50.328;7.610;2023-08-21T01:29:28;15.23;;;10.88;;
77544;SDS011;66672;50.328;7.610;2023-08-21T01:32:02;13.50;;;10.52;;
77544;SDS011;66672;50.328;7.610;2023-08-21T01:34:30;14.63;;;10.07;;
77544;SDS011;66672;50.328;7.610;2023-08-21T01:36:58;13.80;;;10.15;;
77544;SDS011;66672;50.328;7.610;2023-08-21T01:39:23;15.05;;;10.45;;
77544;SDS011;66672;50.328;7.610;2023-08-21T01:41:48;14.48;;;10.90;;
77544;SDS011;66672;50.328;7.610;2023-08-21T01:44:13;15.50;;;11.30;;
77544;SDS011;66672;50.328;7.610;2023-08-21T01:46:39;13.10;;;10.30;;
77544;SDS011;66672;50.328;7.610;2023-08-21T01:49:04;15.88;;;10.35;;
77544;SDS011;66672;50.328;7.610;2023-08-21T01:51:29;11.67;;;9.77;;
77544;SDS011;66672;50.328;7.610;2023-08-21T01:53:54;14.02;;;9.80;;
77544;SDS011;66672;50.328;7.610;2023-08-21T01:56:20;14.50;;;10.88;;
77544;SDS011;66672;50.328;7.610;2023-08-21T01:58:45;13.27;;;10.23;;
77544;SDS011;66672;50.328;7.610;2023-08-21T02:01:10;16.52;;;11.38;;
77544;SDS011;66672;50.328;7.610;2023-08-21T02:03:35;12.27;;;10.00;;
77544;SDS011;66672;50.328;7.610;2023-08-21T02:06:01;12.80;;;10.45;;
77544;SDS011;66672;50.328;7.610;2023-08-21T02:08:32;13.47;;;10.87;;
77544;SDS011;66672;50.328;7.610;2023-08-21T02:11:00;18.75;;;12.13;;
77544;SDS011;66672;50.328;7.610;2023-08-21T02:13:25;14.05;;;10.60;;
77544;SDS011;66672;50.328;7.610;2023-08-21T02:15:50;15.93;;;11.30;;
77544;SDS011;66672;50.328;7.610;2023-08-21T02:18:16;15.43;;;10.98;;
77544;SDS011;66672;50.328;7.610;2023-08-21T02:20:41;14.68;;;12.00;;
77544;SDS011;66672;50.328;7.610;2023-08-21T02:23:06;13.40;;;11.40;;
77544;SDS011;66672;50.328;7.610;2023-08-21T02:25:32;14.50;;;12.00;;
77544;SDS011;66672;50.328;7.610;2023-08-21T02:27:57;16.17;;;12.40;;
77544;SDS011;66672;50.328;7.610;2023-08-21T02:30:23;14.63;;;12.68;;
77544;SDS011;66672;50.328;7.610;2023-08-21T02:32:50;13.38;;;11.23;;
77544;SDS011;66672;50.328;7.610;2023-08-21T02:35:15;15.55;;;12.00;;
77544;SDS011;66672;50.328;7.610;2023-08-21T02:37:41;13.90;;;11.23;;
77544;SDS011;66672;50.328;7.610;2023-08-21T02:40:06;15.45;;;11.57;;
77544;SDS011;66672;50.328;7.610;2023-08-21T02:42:33;13.88;;;12.32;;
77544;SDS011;66672;50.328;7.610;2023-08-21T02:44:58;16.30;;;11.95;;
77544;SDS011;66672;50.328;7.610;2023-08-21T02:47:23;14.03;;;12.13;;
77544;SDS011;66672;50.328;7.610;2023-08-21T02:49:48;16.23;;;12.33;;
77544;SDS011;66672;50.328;7.610;2023-08-21T02:52:13;14.93;;;11.43;;
77544;SDS011;66672;50.328;7.610;2023-08-21T02:54:39;18.05;;;12.57;;
77544;SDS011;66672;50.328;7.610;2023-08-21T02:57:04;14.27;;;11.83;;
77544;SDS011;66672;50.328;7.610;2023-08-21T02:59:29;13.50;;;11.50;;
77544;SDS011;66672;50.328;7.610;2023-08-21T03:01:54;16.03;;;11.53;;
77544;SDS011;66672;50.328;7.610;2023-08-21T03:04:19;16.83;;;12.57;;
77544;SDS011;66672;50.328;7.610;2023-08-21T03:06:45;16.20;;;12.73;;
77544;SDS011;66672;50.328;7.610;2023-08-21T03:09:10;13.57;;;11.82;;
77544;SDS011;66672;50.328;7.610;2023-08-21T03:11:35;18.90;;;11.73;;
77544;SDS011;66672;50.328;7.610;2023-08-21T03:14:00;15.48;;;11.65;;
77544;SDS011;66672;50.328;7.610;2023-08-21T03:16:25;14.10;;;12.43;;
77544;SDS011;66672;50.328;7.610;2023-08-21T03:18:55;16.98;;;12.05;;
77544;SDS011;66672;50.328;7.610;2023-08-21T03:21:21;15.20;;;11.93;;
77544;SDS011;66672;50.328;7.610;2023-08-21T03:23:48;16.73;;;11.55;;
77544;SDS011;66672;50.328;7.610;2023-08-21T03:26:13;14.35;;;11.27;;
77544;SDS011;66672;50.328;7.610;2023-08-21T03:28:38;16.10;;;12.03;;
77544;SDS011;66672;50.328;7.610;2023-08-21T03:31:03;17.97;;;11.73;;
77544;SDS011;66672;50.328;7.610;2023-08-21T03:33:28;14.38;;;11.90;;
77544;SDS011;66672;50.328;7.610;2023-08-21T03:35:54;14.23;;;11.20;;
77544;SDS011;66672;50.328;7.610;2023-08-21T03:38:19;13.50;;;11.32;;
77544;SDS011;66672;50.328;7.610;2023-08-21T03:40:45;14.60;;;11.50;;
77544;SDS011;66672;50.328;7.610;2023-08-21T03:43:10;11.98;;;10.75;;
77544;SDS011;66672;50.328;7.610;2023-08-21T03:45:35;18.23;;;11.95;;
77544;SDS011;66672;50.328;7.610;2023-08-21T03:48:00;14.67;;;11.07;;
77544;SDS011;66672;50.328;7.610;2023-08-21T03:50:25;12.90;;;11.15;;
77544;SDS011;66672;50.328;7.610;2023-08-21T03:52:51;17.00;;;11.93;;
77544;SDS011;66672;50.328;7.610;2023-08-21T03:55:16;14.50;;;11.43;;
77544;SDS011;66672;50.328;7.610;2023-08-21T03:57:41;15.13;;;11.87;;
77544;SDS011;66672;50.328;7.610;2023-08-21T04:00:07;12.95;;;10.55;;
77544;SDS011;66672;50.328;7.610;2023-08-21T04:02:33;14.98;;;12.15;;
77544;SDS011;66672;50.328;7.610;2023-08-21T04:04:58;18.57;;;13.67;;
77544;SDS011;66672;50.328;7.610;2023-08-21T04:07:23;17.40;;;12.70;;
77544;SDS011;66672;50.328;7.610;2023-08-21T04:09:49;14.95;;;12.05;;
77544;SDS011;66672;50.328;7.610;2023-08-21T04:12:14;14.88;;;12.60;;
77544;SDS011;66672;50.328;7.610;2023-08-21T04:14:39;14.80;;;12.13;;
77544;SDS011;66672;50.328;7.610;2023-08-21T04:17:04;14.70;;;12.37;;
77544;SDS011;66672;50.328;7.610;2023-08-21T04:19:29;14.95;;;12.27;;
77544;SDS011;66672;50.328;7.610;2023-08-21T04:21:57;18.50;;;13.75;;
77544;SDS011;66672;50.328;7.610;2023-08-21T04:24:23;18.23;;;12.80;;
77544;SDS011;66672;50.328;7.610;2023-08-21T04:26:49;14.95;;;12.80;;
77544;SDS011;66672;50.328;7.610;2023-08-21T04:29:14;14.38;;;12.88;;
77544;SDS011;66672;50.328;7.610;2023-08-21T04:31:39;14.87;;;12.47;;
77544;SDS011;66672;50.328;7.610;2023-08-21T04:34:04;15.50;;;12.50;;
77544;SDS011;66672;50.328;7.610;2023-08-21T04:36:29;15.95;;;12.48;;
77544;SDS011;66672;50.328;7.610;2023-08-21T04:38:55;14.82;;;12.50;;
77544;SDS011;66672;50.328;7.610;2023-08-21T04:41:20;14.50;;;11.48;;
77544;SDS011;66672;50.328;7.610;2023-08-21T04:43:45;15.13;;;11.43;;
77544;SDS011;66672;50.328;7.610;2023-08-21T04:46:10;14.07;;;11.73;;
77544;SDS011;66672;50.328;7.610;2023-08-21T04:48:35;14.55;;;12.70;;
77544;SDS011;66672;50.328;7.610;2023-08-21T04:51:00;16.73;;;12.70;;
77544;SDS011;66672;50.328;7.610;2023-08-21T04:53:26;15.63;;;13.10;;
77544;SDS011;66672;50.328;7.610;2023-08-21T04:55:51;16.90;;;12.43;;
77544;SDS011;66672;50.328;7.610;2023-08-21T04:58:16;17.73;;;13.20;;
77544;SDS011;66672;50.328;7.610;2023-08-21T05:00:42;14.65;;;12.68;;
77544;SDS011;66672;50.328;7.610;2023-08-21T05:03:09;16.95;;;12.20;;
77544;SDS011;66672;50.328;7.610;2023-08-21T05:05:34;14.63;;;11.97;;
77544;SDS011;66672;50.328;7.610;2023-08-21T05:08:00;18.02;;;13.75;;
77544;SDS011;66672;50.328;7.610;2023-08-21T05:10:25;16.03;;;13.00;;
77544;SDS011;66672;50.328;7.610;2023-08-21T05:12:50;16.20;;;13.45;;
77544;SDS011;66672;50.328;7.610;2023-08-21T05:15:15;15.40;;;12.98;;
77544;SDS011;66672;50.328;7.610;2023-08-21T05:17:41;18.23;;;12.18;;
77544;SDS011;66672;50.328;7.610;2023-08-21T05:20:07;16.77;;;13.20;;
77544;SDS011;66672;50.328;7.610;2023-08-21T05:22:32;16.05;;;12.82;;
77544;SDS011;66672;50.328;7.610;2023-08-21T05:24:57;16.07;;;12.30;;
77544;SDS011;66672;50.328;7.610;2023-08-21T05:27:22;14.23;;;12.73;;
77544;SDS011;66672;50.328;7.610;2023-08-21T05:29:47;20.87;;;13.33;;
77544;SDS011;66672;50.328;7.610;2023-08-21T05:32:14;17.45;;;13.05;;
77544;SDS011;66672;50.328;7.610;2023-08-21T05:34:39;15.38;;;12.82;;
77544;SDS011;66672;50.328;7.610;2023-08-21T05:37:04;13.70;;;12.10;;
77544;SDS011;66672;50.328;7.610;2023-08-21T05:39:30;17.83;;;12.23;;
77544;SDS011;66672;50.328;7.610;2023-08-21T05:41:55;16.23;;;12.47;;
77544;SDS011;66672;50.328;7.610;2023-08-21T05:44:20;20.08;;;12.70;;
77544;SDS011;66672;50.328;7.610;2023-08-21T05:46:45;16.48;;;12.98;;
77544;SDS011;66672;50.328;7.610;2023-08-21T05:49:11;16.35;;;12.63;;
77544;SDS011;66672;50.328;7.610;2023-08-21T05:51:36;15.57;;;13.70;;
77544;SDS011;66672;50.328;7.610;2023-08-21T05:54:01;16.55;;;12.70;;
77544;SDS011;66672;50.328;7.610;2023-08-21T05:56:26;16.77;;;13.25;;
77544;SDS011;66672;50.328;7.610;2023-08-21T05:58:51;18.35;;;12.63;;
77544;SDS011;66672;50.328;7.610;2023-08-21T06:01:17;16.42;;;13.40;;
77544;SDS011;66672;50.328;7.610;2023-08-21T06:03:42;20.53;;;14.27;;
77544;SDS011;66672;50.328;7.610;2023-08-21T06:06:07;18.65;;;15.25;;
77544;SDS011;66672;50.328;7.610;2023-08-21T06:08:33;19.03;;;13.40;;
77544;SDS011;66672;50.328;7.610;2023-08-21T06:10:58;16.47;;;12.83;;
77544;SDS011;66672;50.328;7.610;2023-08-21T06:13:23;16.17;;;12.87;;
77544;SDS011;66672;50.328;7.610;2023-08-21T06:15:48;19.58;;;13.57;;
77544;SDS011;66672;50.328;7.610;2023-08-21T06:18:14;26.27;;;13.80;;
77544;SDS011;66672;50.328;7.610;2023-08-21T06:20:41;17.23;;;14.18;;
77544;SDS011;66672;50.328;7.610;2023-08-21T06:23:06;16.83;;;13.40;;
77544;SDS011;66672;50.328;7.610;2023-08-21T06:25:32;16.00;;;13.30;;
77544;SDS011;66672;50.328;7.610;2023-08-21T06:27:57;17.70;;;13.40;;
77544;SDS011;66672;50.328;7.610;2023-08-21T06:30:23;15.35;;;12.82;;
77544;SDS011;66672;50.328;7.610;2023-08-21T06:32:48;18.10;;;14.13;;
77544;SDS011;66672;50.328;7.610;2023-08-21T06:35:14;16.85;;;13.35;;
77544;SDS011;66672;50.328;7.610;2023-08-21T06:37:40;16.50;;;13.05;;
77544;SDS011;66672;50.328;7.610;2023-08-21T06:40:05;16.92;;;13.20;;
77544;SDS011;66672;50.328;7.610;2023-08-21T06:42:31;16.98;;;13.35;;
77544;SDS011;66672;50.328;7.610;2023-08-21T06:44:57;20.38;;;13.68;;
77544;SDS011;66672;50.328;7.610;2023-08-21T06:47:22;16.30;;;12.50;;
77544;SDS011;66672;50.328;7.610;2023-08-21T06:49:47;18.85;;;12.45;;
77544;SDS011;66672;50.328;7.610;2023-08-21T06:52:12;15.95;;;13.90;;
77544;SDS011;66672;50.328;7.610;2023-08-21T06:54:37;19.27;;;14.05;;
77544;SDS011;66672;50.328;7.610;2023-08-21T06:57:03;19.00;;;14.77;;
77544;SDS011;66672;50.328;7.610;2023-08-21T06:59:28;16.05;;;12.18;;
77544;SDS011;66672;50.328;7.610;2023-08-21T07:01:53;13.85;;;12.02;;
77544;SDS011;66672;50.328;7.610;2023-08-21T07:04:18;14.00;;;11.80;;
77544;SDS011;66672;50.328;7.610;2023-08-21T07:06:43;14.07;;;11.70;;
77544;SDS011;66672;50.328;7.610;2023-08-21T07:09:09;14.63;;;12.25;;
77544;SDS011;66672;50.328;7.610;2023-08-21T07:11:35;18.92;;;12.90;;
77544;SDS011;66672;50.328;7.610;2023-08-21T07:14:00;14.03;;;12.37;;
77544;SDS011;66672;50.328;7.610;2023-08-21T07:16:25;16.13;;;12.07;;
77544;SDS011;66672;50.328;7.610;2023-08-21T07:18:51;16.92;;;12.07;;
77544;SDS011;66672;50.328;7.610;2023-08-21T07:21:16;16.05;;;12.30;;
77544;SDS011;66672;50.328;7.610;2023-08-21T07:23:42;14.95;;;12.27;;
77544;SDS011;66672;50.328;7.610;2023-08-21T07:26:07;14.17;;;11.37;;
77544;SDS011;66672;50.328;7.610;2023-08-21T07:28:33;14.57;;;11.65;;
77544;SDS011;66672;50.328;7.610;2023-08-21T07:30:58;16.67;;;12.15;;
77544;SDS011;66672;50.328;7.610;2023-08-21T07:33:26;15.45;;;11.52;;
77544;SDS011;66672;50.328;7.610;2023-08-21T07:35:59;14.05;;;11.68;;
77544;SDS011;66672;50.328;7.610;2023-08-21T07:38:24;17.20;;;12.05;;
77544;SDS011;66672;50.328;7.610;2023-08-21T07:40:50;13.70;;;11.27;;
77544;SDS011;66672;50.328;7.610;2023-08-21T07:43:15;12.70;;;10.98;;
77544;SDS011;66672;50.328;7.610;2023-08-21T07:45:40;16.55;;;11.98;;
77544;SDS011;66672;50.328;7.610;2023-08-21T07:48:05;15.87;;;12.27;;
77544;SDS011;66672;50.328;7.610;2023-08-21T07:50:31;13.90;;;11.05;;
77544;SDS011;66672;50.328;7.610;2023-08-21T07:52:56;14.05;;;12.32;;
77544;SDS011;66672;50.328;7.610;2023-08-21T07:55:21;13.80;;;12.10;;
77544;SDS011;66672;50.328;7.610;2023-08-21T07:57:46;15.33;;;12.83;;
77544;SDS011;66672;50.328;7.610;2023-08-21T08:00:12;16.92;;;12.25;;
77544;SDS011;66672;50.328;7.610;2023-08-21T08:02:37;13.18;;;11.70;;
77544;SDS011;66672;50.328;7.610;2023-08-21T08:05:02;15.73;;;11.63;;
77544;SDS011;66672;50.328;7.610;2023-08-21T08:07:28;14.13;;;11.07;;
77544;SDS011;66672;50.328;7.610;2023-08-21T08:09:53;13.32;;;11.02;;
77544;SDS011;66672;50.328;7.610;2023-08-21T08:12:18;12.70;;;10.90;;
77544;SDS011;66672;50.328;7.610;2023-08-21T08:14:44;11.97;;;10.67;;
77544;SDS011;66672;50.328;7.610;2023-08-21T08:17:09;14.00;;;11.43;;
77544;SDS011;66672;50.328;7.610;2023-08-21T08:19:34;13.15;;;10.80;;
77544;SDS011;66672;50.328;7.610;2023-08-21T08:21:59;12.13;;;10.18;;
77544;SDS011;66672;50.328;7.610;2023-08-21T08:24:24;13.40;;;11.00;;
77544;SDS011;66672;50.328;7.610;2023-08-21T08:26:49;15.43;;;11.32;;
77544;SDS011;66672;50.328;7.610;2023-08-21T08:29:15;15.77;;;11.07;;
77544;SDS011;66672;50.328;7.610;2023-08-21T08:31:40;13.60;;;10.55;;
77544;SDS011;66672;50.328;7.610;2023-08-21T08:34:05;10.98;;;9.27;;
77544;SDS011;66672;50.328;7.610;2023-08-21T08:36:31;13.82;;;10.00;;
77544;SDS011;66672;50.328;7.610;2023-08-21T08:38:56;14.57;;;11.70;;
77544;SDS011;66672;50.328;7.610;2023-08-21T08:43:50;15.82;;;11.48;;
77544;SDS011;66672;50.328;7.610;2023-08-21T08:46:15;15.52;;;10.93;;
77544;SDS011;66672;50.328;7.610;2023-08-21T08:48:40;13.13;;;10.63;;
77544;SDS011;66672;50.328;7.610;2023-08-21T08:51:05;12.65;;;11.00;;
77544;SDS011;66672;50.328;7.610;2023-08-21T08:53:31;14.32;;;11.93;;
77544;SDS011;66672;50.328;7.610;2023-08-21T08:55:57;17.58;;;14.32;;
77544;SDS011;66672;50.328;7.610;2023-08-21T08:58:22;13.48;;;11.63;;
77544;SDS011;66672;50.328;7.610;2023-08-21T09:00:47;12.27;;;10.88;;
77544;SDS011;66672;50.328;7.610;2023-08-21T09:03:12;12.98;;;11.38;;
77544;SDS011;66672;50.328;7.610;2023-08-21T09:05:39;14.88;;;11.43;;
77544;SDS011;66672;50.328;7.610;2023-08-21T09:08:10;14.02;;;10.52;;
77544;SDS011;66672;50.328;7.610;2023-08-21T09:10:37;14.68;;;11.05;;
77544;SDS011;66672;50.328;7.610;2023-08-21T09:13:11;13.95;;;12.05;;
77544;SDS011;66672;50.328;7.610;2023-08-21T09:15:36;13.02;;;10.45;;
77544;SDS011;66672;50.328;7.610;2023-08-21T09:18:02;13.63;;;11.18;;
77544;SDS011;66672;50.328;7.610;2023-08-21T09:20:27;13.57;;;10.80;;
77544;SDS011;66672;50.328;7.610;2023-08-21T09:22:53;13.25;;;11.02;;
77544;SDS011;66672;50.328;7.610;2023-08-21T09:25:18;17.60;;;12.00;;
77544;SDS011;66672;50.328;7.610;2023-08-21T09:27:43;13.77;;;11.98;;
77544;SDS011;66672;50.328;7.610;2023-08-21T09:30:09;17.92;;;11.90;;
77544;SDS011;66672;50.328;7.610;2023-08-21T09:35:19;11.48;;;9.82;;
77544;SDS011;66672;50.328;7.610;2023-08-21T09:37:46;13.00;;;9.98;;
77544;SDS011;66672;50.328;7.610;2023-08-21T09:40:11;11.60;;;10.32;;
77544;SDS011;66672;50.328;7.610;2023-08-21T09:42:37;14.13;;;10.87;;
77544;SDS011;66672;50.328;7.610;2023-08-21T09:45:04;13.98;;;10.68;;
77544;SDS011;66672;50.328;7.610;2023-08-21T09:47:29;14.38;;;10.88;;
77544;SDS011;66672;50.328;7.610;2023-08-21T09:49:54;12.45;;;9.98;;
77544;SDS011;66672;50.328;7.610;2023-08-21T09:52:20;14.52;;;11.82;;
77544;SDS011;66672;50.328;7.610;2023-08-21T09:54:45;13.07;;;11.68;;
77544;SDS011;66672;50.328;7.610;2023-08-21T09:57:10;14.50;;;10.98;;
77544;SDS011;66672;50.328;7.610;2023-08-21T09:59:37;12.65;;;9.93;;
77544;SDS011;66672;50.328;7.610;2023-08-21T10:02:05;11.85;;;9.60;;
77544;SDS011;66672;50.328;7.610;2023-08-21T10:04:30;13.80;;;10.27;;
77544;SDS011;66672;50.328;7.610;2023-08-21T10:06:56;12.02;;;9.80;;
77544;SDS011;66672;50.328;7.610;2023-08-21T10:09:23;11.88;;;9.48;;
77544;SDS011;66672;50.328;7.610;2023-08-21T10:11:48;12.75;;;9.77;;
77544;SDS011;66672;50.328;7.610;2023-08-21T10:14:14;10.75;;;9.07;;
77544;SDS011;66672;50.328;7.610;2023-08-21T10:16:39;12.55;;;9.68;;
77544;SDS011;66672;50.328;7.610;2023-08-21T10:19:04;17.33;;;10.90;;
77544;SDS011;66672;50.328;7.610;2023-08-21T10:21:35;12.68;;;10.50;;
77544;SDS011;66672;50.328;7.610;2023-08-21T10:24:00;14.02;;;11.60;;
77544;SDS011;66672;50.328;7.610;2023-08-21T10:26:25;15.45;;;10.90;;
77544;SDS011;66672;50.328;7.610;2023-08-21T10:28:55;13.77;;;10.90;;
77544;SDS011;66672;50.328;7.610;2023-08-21T10:33:58;12.45;;;9.95;;
77544;SDS011;66672;50.328;7.610;2023-08-21T10:41:39;13.68;;;11.60;;
77544;SDS011;66672;50.328;7.610;2023-08-21T10:44:05;18.60;;;13.50;;
77544;SDS011;66672;50.328;7.610;2023-08-21T10:46:30;13.60;;;10.48;;
77544;SDS011;66672;50.328;7.610;2023-08-21T10:49:14;12.07;;;9.20;;
77544;SDS011;66672;50.328;7.610;2023-08-21T10:51:39;13.57;;;9.07;;
77544;SDS011;66672;50.328;7.610;2023-08-21T10:54:14;11.48;;;8.73;;
77544;SDS011;66672;50.328;7.610;2023-08-21T10:56:39;10.73;;;8.82;;
77544;SDS011;66672;50.328;7.610;2023-08-21T10:59:04;11.38;;;9.23;;
77544;SDS011;66672;50.328;7.610;2023-08-21T11:01:42;11.00;;;9.00;;
77544;SDS011;66672;50.328;7.610;2023-08-21T11:04:09;14.45;;;10.23;;
77544;SDS011;66672;50.328;7.610;2023-08-21T11:06:34;10.67;;;9.20;;
77544;SDS011;66672;50.328;7.610;2023-08-21T11:09:02;11.07;;;8.60;;
77544;SDS011;66672;50.328;7.610;2023-08-21T11:11:28;9.57;;;7.63;;
77544;SDS011;66672;50.328;7.610;2023-08-21T11:13:53;10.43;;;8.55;;
77544;SDS011;66672;50.328;7.610;2023-08-21T11:16:19;10.45;;;8.05;;
77544;SDS011;66672;50.328;7.610;2023-08-21T11:18:44;16.95;;;12.70;;
77544;SDS011;66672;50.328;7.610;2023-08-21T11:21:10;8.93;;;7.03;;
77544;SDS011;66672;50.328;7.610;2023-08-21T11:23:39;8.32;;;7.13;;
77544;SDS011;66672;50.328;7.610;2023-08-21T11:26:05;11.68;;;8.07;;
77544;SDS011;66672;50.328;7.610;2023-08-21T11:28:31;11.15;;;8.43;;
77544;SDS011;66672;50.328;7.610;2023-08-21T11:30:56;10.07;;;7.22;;
77544;SDS011;66672;50.328;7.610;2023-08-21T11:33:21;10.20;;;7.22;;
77544;SDS011;66672;50.328;7.610;2023-08-21T11:35:47;8.95;;;7.35;;
77544;SDS011;66672;50.328;7.610;2023-08-21T11:38:16;9.55;;;7.20;;
77544;SDS011;66672;50.328;7.610;2023-08-21T11:40:42;11.63;;;7.43;;
77544;SDS011;66672;50.328;7.610;2023-08-21T11:43:07;12.70;;;7.50;;
77544;SDS011;66672;50.328;7.610;2023-08-21T11:45:34;10.30;;;7.32;;
77544;SDS011;66672;50.328;7.610;2023-08-21T11:47:59;9.60;;;7.28;;
77544;SDS011;66672;50.328;7.610;2023-08-21T11:50:24;10.68;;;6.55;;
77544;SDS011;66672;50.328;7.610;2023-08-21T11:52:52;10.40;;;6.75;;
77544;SDS011;66672;50.328;7.610;2023-08-21T11:55:18;8.85;;;6.40;;
77544;SDS011;66672;50.328;7.610;2023-08-21T11:57:49;8.90;;;7.00;;
77544;SDS011;66672;50.328;7.610;2023-08-21T12:00:19;8.65;;;6.72;;
77544;SDS011;66672;50.328;7.610;2023-08-21T12:02:57;11.32;;;6.70;;
77544;SDS011;66672;50.328;7.610;2023-08-21T12:05:22;9.73;;;7.03;;
77544;SDS011;66672;50.328;7.610;2023-08-21T12:07:48;10.98;;;6.53;;
77544;SDS011;66672;50.328;7.610;2023-08-21T12:10:13;8.07;;;5.70;;
77544;SDS011;66672;50.328;7.610;2023-08-21T12:12:38;7.85;;;5.50;;
77544;SDS011;66672;50.328;7.610;2023-08-21T12:15:03;8.35;;;5.97;;
77544;SDS011;66672;50.328;7.610;2023-08-21T12:17:29;7.10;;;5.32;;
77544;SDS011;66672;50.328;7.610;2023-08-21T12:19:54;7.60;;;5.18;;
77544;SDS011;66672;50.328;7.610;2023-08-21T12:22:19;7.53;;;5.00;;
77544;SDS011;66672;50.328;7.610;2023-08-21T12:24:44;7.80;;;4.82;;
77544;SDS011;66672;50.328;7.610;2023-08-21T12:27:10;6.40;;;5.00;;
77544;SDS011;66672;50.328;7.610;2023-08-21T12:29:35;6.40;;;5.30;;
77544;SDS011;66672;50.328;7.610;2023-08-21T12:32:00;7.57;;;5.40;;
77544;SDS011;66672;50.328;7.610;2023-08-21T12:34:25;6.80;;;4.83;;
77544;SDS011;66672;50.328;7.610;2023-08-21T12:36:52;7.97;;;4.93;;
77544;SDS011;66672;50.328;7.610;2023-08-21T12:39:17;6.05;;;4.55;;
77544;SDS011;66672;50.328;7.610;2023-08-21T12:41:43;6.85;;;4.43;;
77544;SDS011;66672;50.328;7.610;2023-08-21T12:44:08;7.28;;;4.55;;
77544;SDS011;66672;50.328;7.610;2023-08-21T12:46:34;7.55;;;4.68;;
77544;SDS011;66672;50.328;7.610;2023-08-21T12:48:59;6.22;;;4.63;;
77544;SDS011;66672;50.328;7.610;2023-08-21T12:51:26;6.30;;;4.57;;
77544;SDS011;66672;50.328;7.610;2023-08-21T12:53:51;6.97;;;4.60;;
77544;SDS011;66672;50.328;7.610;2023-08-21T12:56:16;6.40;;;4.60;;
77544;SDS011;66672;50.328;7.610;2023-08-21T12:58:41;7.05;;;5.15;;
77544;SDS011;66672;50.328;7.610;2023-08-21T13:01:07;8.67;;;4.83;;
77544;SDS011;66672;50.328;7.610;2023-08-21T13:03:35;7.18;;;5.10;;
77544;SDS011;66672;50.328;7.610;2023-08-21T13:06:00;8.82;;;5.32;;
77544;SDS011;66672;50.328;7.610;2023-08-21T13:08:25;6.37;;;4.90;;
77544;SDS011;66672;50.328;7.610;2023-08-21T13:10:51;7.78;;;5.72;;
77544;SDS011;66672;50.328;7.610;2023-08-21T13:13:17;6.38;;;5.00;;
77544;SDS011;66672;50.328;7.610;2023-08-21T13:15:42;7.93;;;5.93;;
77544;SDS011;66672;50.328;7.610;2023-08-21T13:18:09;7.45;;;6.07;;
77544;SDS011;66672;50.328;7.610;2023-08-21T13:20:35;8.65;;;5.93;;
77544;SDS011;66672;50.328;7.610;2023-08-21T13:23:00;9.55;;;6.03;;
77544;SDS011;66672;50.328;7.610;2023-08-21T13:25:25;7.28;;;6.00;;
77544;SDS011;66672;50.328;7.610;2023-08-21T13:27:51;8.82;;;5.82;;
77544;SDS011;66672;50.328;7.610;2023-08-21T13:30:17;9.15;;;6.40;;
77544;SDS011;66672;50.328;7.610;2023-08-21T13:32:42;7.38;;;6.18;;
77544;SDS011;66672;50.328;7.610;2023-08-21T13:35:08;8.43;;;6.70;;
77544;SDS011;66672;50.328;7.610;2023-08-21T13:37:34;9.30;;;6.50;;
77544;SDS011;66672;50.328;7.610;2023-08-21T13:39:59;6.95;;;6.25;;
77544;SDS011;66672;50.328;7.610;2023-08-21T13:42:26;9.32;;;6.55;;
77544;SDS011;66672;50.328;7.610;2023-08-21T13:44:55;8.93;;;6.22;;
77544;SDS011;66672;50.328;7.610;2023-08-21T13:47:20;8.40;;;6.33;;
77544;SDS011;66672;50.328;7.610;2023-08-21T13:49:45;7.73;;;6.20;;
77544;SDS011;66672;50.328;7.610;2023-08-21T13:52:11;8.68;;;6.18;;
77544;SDS011;66672;50.328;7.610;2023-08-21T13:54:36;10.27;;;5.93;;
77544;SDS011;66672;50.328;7.610;2023-08-21T13:57:01;9.23;;;7.00;;
77544;SDS011;66672;50.328;7.610;2023-08-21T13:59:26;8.17;;;5.97;;
77544;SDS011;66672;50.328;7.610;2023-08-21T14:01:51;7.57;;;6.60;;
77544;SDS011;66672;50.328;7.610;2023-08-21T14:04:17;8.10;;;6.30;;
77544;SDS011;66672;50.328;7.610;2023-08-21T14:06:42;7.57;;;6.27;;
77544;SDS011;66672;50.328;7.610;2023-08-21T14:09:07;8.37;;;6.27;;
77544;SDS011;66672;50.328;7.610;2023-08-21T14:11:32;9.03;;;6.77;;
77544;SDS011;66672;50.328;7.610;2023-08-21T14:13:57;8.57;;;7.00;;
77544;SDS011;66672;50.328;7.610;2023-08-21T14:16:22;8.17;;;6.90;;
77544;SDS011;66672;50.328;7.610;2023-08-21T14:18:48;8.13;;;6.77;;
77544;SDS011;66672;50.328;7.610;2023-08-21T14:21:13;10.57;;;7.23;;
77544;SDS011;66672;50.328;7.610;2023-08-21T14:23:38;8.93;;;7.30;;
77544;SDS011;66672;50.328;7.610;2023-08-21T14:26:04;9.98;;;7.13;;
77544;SDS011;66672;50.328;7.610;2023-08-21T14:28:29;9.55;;;7.45;;
77544;SDS011;66672;50.328;7.610;2023-08-21T14:30:54;8.25;;;7.45;;
77544;SDS011;66672;50.328;7.610;2023-08-21T14:33:20;10.70;;;7.60;;
77544;SDS011;66672;50.328;7.610;2023-08-21T14:35:46;8.98;;;7.97;;
77544;SDS011;66672;50.328;7.610;2023-08-21T14:38:11;11.10;;;7.93;;